Terminal Aerodrome Forecast
Issued by NWS

Home | Current Version | Previous Version | Text Only | Print | Product List | Glossary On
Versions: 1 2 3 4 5 6 7 8 9 10 11 12 13 14 15 16 17 18 19 20
000
FTUS42 KJAX 242320
TAFVQQ
TAF
KVQQ 242320Z 2500/2524 06005KT P6SM FEW040 SCT250
     FM250800 00000KT 4SM BR FEW250
     FM251000 00000KT 2SM BR FEW250
     FM251330 03006KT P6SM SCT030
     FM251700 03006KT P6SM VCTS BKN050CB=

USA.gov is the U.S. government's official web portal to all federal, state and local government web resources and services.